createdAt,value
2023-02-21T00:00:50.003Z,8.14
2023-02-21T00:06:20.963Z,7.71
2023-02-21T00:11:42.690Z,7.38
2023-02-21T00:17:05.558Z,7.11
2023-02-21T00:22:28.772Z,7.00
2023-02-21T00:27:50.094Z,6.90
2023-02-21T00:33:11.652Z,6.90
2023-02-21T00:38:35.191Z,6.93
2023-02-21T00:43:56.939Z,7.06
2023-02-21T00:49:19.999Z,7.27
2023-02-21T00:54:43.505Z,7.43
2023-02-21T01:00:05.297Z,7.79
2023-02-21T01:05:27.340Z,7.67
2023-02-21T01:10:50.625Z,7.93
2023-02-21T01:16:12.493Z,8.03
2023-02-21T01:21:36.666Z,7.98
2023-02-21T01:27:00.472Z,8.23
2023-02-21T01:32:22.166Z,8.18
2023-02-21T01:37:44.013Z,8.13
2023-02-21T01:43:07.271Z,8.16
2023-02-21T01:48:31.475Z,8.12
2023-02-21T01:53:53.422Z,8.16
2023-02-21T01:59:20.394Z,8.03
2023-02-21T02:04:42.175Z,7.80
2023-02-21T02:10:04.126Z,7.92
2023-02-21T02:15:26.004Z,8.09
2023-02-21T02:21:18.581Z,8.14
2023-02-21T02:27:10.861Z,8.17
2023-02-21T02:32:40.379Z,8.07
2023-02-21T02:37:53.791Z,8.04
2023-02-21T02:43:10.922Z,7.91
2023-02-21T02:48:24.223Z,8.05
2023-02-21T02:53:32.047Z,7.99
2023-02-21T02:58:42.708Z,8.04
2023-02-21T03:04:01.478Z,7.91
2023-02-21T03:09:14.948Z,7.89
2023-02-21T03:14:25.413Z,7.83
2023-02-21T03:19:34.521Z,7.92
2023-02-21T03:24:41.878Z,7.96
2023-02-21T03:29:47.818Z,7.91
2023-02-21T03:34:53.035Z,7.94
2023-02-21T03:40:01.122Z,7.94
2023-02-21T03:45:09.298Z,7.92
2023-02-21T03:50:15.771Z,7.84
2023-02-21T03:55:23.844Z,7.86
2023-02-21T04:00:29.795Z,7.89
2023-02-21T04:05:35.472Z,7.92
2023-02-21T04:10:52.086Z,7.89
2023-02-21T04:16:02.636Z,7.86
2023-02-21T04:21:10.556Z,7.78
2023-02-21T04:26:20.533Z,7.91
2023-02-21T04:31:30.935Z,7.83
2023-02-21T04:36:39.857Z,7.92
2023-02-21T04:41:47.833Z,7.98
2023-02-21T04:46:55.674Z,7.99
2023-02-21T04:52:03.573Z,7.92
2023-02-21T04:57:12.470Z,7.84
2023-02-21T05:02:20.273Z,7.82
2023-02-21T05:07:28.288Z,7.80
2023-02-21T05:12:38.204Z,7.73
2023-02-21T05:17:47.066Z,7.68
2023-02-21T05:22:55.999Z,7.74
2023-02-21T05:28:06.713Z,7.79
2023-02-21T05:33:13.931Z,7.79
2023-02-21T05:38:23.607Z,7.77
2023-02-21T05:43:34.345Z,7.82
2023-02-21T05:48:41.716Z,7.82
2023-02-21T05:53:49.850Z,7.79
2023-02-21T05:58:59.061Z,7.64
2023-02-21T06:04:08.251Z,7.41
2023-02-21T06:09:23.852Z,7.26
2023-02-21T06:14:47.427Z,7.16
2023-02-21T06:19:54.750Z,7.34
2023-02-21T06:25:02.463Z,6.88
2023-02-21T06:30:13.177Z,6.56
2023-02-21T06:35:20.452Z,6.63
2023-02-21T06:40:26.618Z,6.75
2023-02-21T06:45:33.715Z,6.76
2023-02-21T06:50:40.452Z,6.77
2023-02-21T06:55:48.282Z,6.76
2023-02-21T07:00:58.601Z,6.86
2023-02-21T07:06:05.837Z,6.81
2023-02-21T07:11:12.654Z,6.96
2023-02-21T07:16:22.294Z,7.12
2023-02-21T07:21:29.470Z,7.29
2023-02-21T07:26:37.955Z,7.05
2023-02-21T07:31:45.877Z,7.03
2023-02-21T07:36:53.486Z,7.48
2023-02-21T07:42:01.322Z,7.69
2023-02-21T07:47:12.078Z,6.99
2023-02-21T07:52:20.063Z,6.84
2023-02-21T07:57:27.151Z,6.86
2023-02-21T08:02:36.292Z,6.80
2023-02-21T08:07:42.798Z,6.73
2023-02-21T08:12:48.962Z,6.78
2023-02-21T08:17:55.830Z,7.16
2023-02-21T08:23:02.041Z,7.32
2023-02-21T08:28:09.598Z,7.47
2023-02-21T08:33:18.999Z,7.60
2023-02-21T08:38:25.873Z,7.65
2023-02-21T08:43:33.212Z,7.58
2023-02-21T08:48:40.805Z,7.42
2023-02-21T08:53:47.316Z,7.59
2023-02-21T08:58:55.794Z,7.74
2023-02-21T09:04:05.210Z,7.92
2023-02-21T09:09:12.997Z,7.53
2023-02-21T09:14:20.965Z,7.70
2023-02-21T09:19:29.642Z,7.78
2023-02-21T09:24:36.994Z,7.44
2023-02-21T09:29:46.710Z,7.25
2023-02-21T09:34:54.542Z,7.25
2023-02-21T09:40:01.813Z,7.64
2023-02-21T09:45:12.820Z,7.73
2023-02-21T09:50:32.016Z,7.19
2023-02-21T09:55:42.561Z,7.00
2023-02-21T10:00:50.868Z,6.93
2023-02-21T10:06:05.698Z,6.88
2023-02-21T10:11:31.879Z,6.81
2023-02-21T10:16:45.351Z,7.32
2023-02-21T10:21:59.287Z,7.31
2023-02-21T10:27:08.711Z,7.85
2023-02-21T10:32:16.261Z,8.15
2023-02-21T10:37:39.632Z,8.57
2023-02-21T10:42:52.042Z,8.81
2023-02-21T10:48:03.752Z,8.76
2023-02-21T10:53:25.502Z,9.14
2023-02-21T10:58:33.453Z,9.41
2023-02-21T11:03:46.362Z,9.34
2023-02-21T11:08:53.609Z,9.26
2023-02-21T11:14:21.840Z,9.29
2023-02-21T11:19:28.243Z,9.72
2023-02-21T11:24:37.711Z,9.67
2023-02-21T11:29:46.088Z,9.68
2023-02-21T11:34:53.076Z,9.89
2023-02-21T11:40:02.498Z,9.71
2023-02-21T11:45:27.179Z,10.00
2023-02-21T11:50:40.963Z,9.84
2023-02-21T11:56:00.903Z,9.59
2023-02-21T12:01:14.325Z,10.14
2023-02-21T12:06:29.545Z,10.27
2023-02-21T12:12:00.592Z,10.51
2023-02-21T12:17:22.584Z,10.60
2023-02-21T12:22:48.507Z,10.83
2023-02-21T12:28:02.472Z,10.91
2023-02-21T12:33:25.076Z,10.94
2023-02-21T12:38:41.462Z,11.96
2023-02-21T12:44:02.619Z,10.93
2023-02-21T12:49:13.449Z,10.78
2023-02-21T12:54:25.774Z,10.02
2023-02-21T12:59:42.526Z,10.50
2023-02-21T13:04:54.904Z,10.01
2023-02-21T13:10:08.251Z,10.65
2023-02-21T13:15:23.490Z,11.41
2023-02-21T13:20:33.597Z,10.75
2023-02-21T13:25:53.812Z,10.35
2023-02-21T13:31:05.426Z,10.09
2023-02-21T13:36:28.144Z,9.97
2023-02-21T13:41:40.672Z,11.09
2023-02-21T13:47:12.136Z,10.65
2023-02-21T13:52:50.005Z,10.54
2023-02-21T13:58:39.442Z,10.55
2023-02-21T14:03:47.963Z,10.09
2023-02-21T14:09:01.408Z,10.20
2023-02-21T14:14:21.576Z,10.74
2023-02-21T14:19:36.236Z,9.81
2023-02-21T14:24:46.647Z,9.83
2023-02-21T14:30:30.249Z,10.23
2023-02-21T14:35:40.649Z,9.27
2023-02-21T14:40:57.813Z,8.90
2023-02-21T14:46:34.142Z,8.70
2023-02-21T14:51:59.362Z,8.71
2023-02-21T14:57:24.789Z,8.67
2023-02-21T15:02:35.868Z,8.78
2023-02-21T15:07:59.162Z,8.66
2023-02-21T15:13:06.379Z,8.86
2023-02-21T15:18:12.778Z,8.71
2023-02-21T15:23:30.622Z,8.64
2023-02-21T15:28:35.266Z,8.67
2023-02-21T15:33:42.008Z,8.58
2023-02-21T15:38:51.505Z,8.41
2023-02-21T15:44:01.568Z,8.69
2023-02-21T15:49:07.116Z,8.51
2023-02-21T15:54:26.234Z,8.12
2023-02-21T15:59:31.479Z,8.43
2023-02-21T16:04:38.095Z,8.07
2023-02-21T16:09:48.268Z,8.10
2023-02-21T16:14:59.421Z,7.83
2023-02-21T16:20:16.734Z,7.91
2023-02-21T16:25:24.838Z,7.81
2023-02-21T16:30:32.452Z,7.61
2023-02-21T16:35:36.919Z,7.69
2023-02-21T16:40:43.353Z,7.75
2023-02-21T16:45:49.863Z,7.87
2023-02-21T16:50:54.468Z,7.76
2023-02-21T16:56:01.459Z,7.65
2023-02-21T17:01:09.260Z,7.73
2023-02-21T17:06:18.341Z,7.73
2023-02-21T17:11:24.241Z,7.47
2023-02-21T17:16:28.355Z,7.53
2023-02-21T17:21:33.127Z,7.33
2023-02-21T17:26:39.200Z,7.30
2023-02-21T17:31:43.721Z,7.31
2023-02-21T17:36:50.650Z,7.04
2023-02-21T17:41:56.858Z,7.24
2023-02-21T17:47:01.942Z,6.69
2023-02-21T17:52:06.837Z,7.02
2023-02-21T17:57:12.879Z,6.64
2023-02-21T18:02:19.062Z,6.50
2023-02-21T18:07:24.967Z,6.81
2023-02-21T18:12:30.926Z,6.68
2023-02-21T18:17:35.337Z,6.47
2023-02-21T18:22:40.277Z,6.75
2023-02-21T18:27:46.805Z,6.56
2023-02-21T18:32:51.378Z,6.41
2023-02-21T18:37:55.867Z,6.38
2023-02-21T18:43:02.139Z,6.24
2023-02-21T18:48:09.610Z,6.37
2023-02-21T18:53:17.365Z,6.23
2023-02-21T18:58:23.318Z,6.07
2023-02-21T19:03:27.791Z,6.04
2023-02-21T19:08:32.293Z,5.94
2023-02-21T19:13:38.182Z,5.96
2023-02-21T19:18:42.782Z,5.93
2023-02-21T19:23:47.435Z,5.96
2023-02-21T19:28:54.111Z,6.11
2023-02-21T19:33:58.588Z,5.65
2023-02-21T19:39:04.501Z,5.56
2023-02-21T19:44:10.489Z,5.77
2023-02-21T19:49:18.144Z,5.60
2023-02-21T19:54:27.089Z,5.47
2023-02-21T19:59:33.975Z,5.05
2023-02-21T20:04:38.686Z,4.82
2023-02-21T20:09:43.364Z,4.73
2023-02-21T20:14:49.486Z,4.71
2023-02-21T20:19:53.840Z,4.52
2023-02-21T20:24:58.262Z,4.48
2023-02-21T20:30:05.595Z,4.47
2023-02-21T20:35:12.754Z,4.45
2023-02-21T20:40:18.841Z,4.39
2023-02-21T20:45:24.758Z,4.21
2023-02-21T20:50:30.531Z,4.40
2023-02-21T20:55:37.429Z,4.31
2023-02-21T21:00:43.634Z,3.90
2023-02-21T21:05:50.715Z,3.73
2023-02-21T21:10:55.188Z,3.61
2023-02-21T21:16:01.345Z,3.47
2023-02-21T21:21:06.086Z,3.44
2023-02-21T21:26:12.223Z,3.62
2023-02-21T21:31:19.431Z,3.59
2023-02-21T21:36:26.685Z,3.72
2023-02-21T21:41:34.759Z,3.84
2023-02-21T21:46:46.899Z,3.91
2023-02-21T21:51:51.655Z,3.94
2023-02-21T21:56:56.671Z,4.01
2023-02-21T22:02:02.719Z,4.16
2023-02-21T22:07:08.123Z,4.26
2023-02-21T22:12:18.717Z,4.29
2023-02-21T22:17:24.896Z,4.31
2023-02-21T22:22:29.816Z,4.42
2023-02-21T22:27:35.002Z,4.45
2023-02-21T22:32:42.803Z,4.45
2023-02-21T22:37:50.620Z,4.44
2023-02-21T22:42:56.407Z,4.52
2023-02-21T22:48:04.170Z,4.47
2023-02-21T22:53:13.171Z,4.52
2023-02-21T22:58:21.377Z,4.88
2023-02-21T23:03:28.885Z,5.38
2023-02-21T23:08:35.381Z,5.09
2023-02-21T23:13:39.970Z,4.95
2023-02-21T23:18:46.053Z,4.86
2023-02-21T23:23:51.710Z,4.80
2023-02-21T23:28:56.255Z,4.72
2023-02-21T23:34:02.245Z,4.60
2023-02-21T23:39:09.242Z,4.49
2023-02-21T23:44:14.966Z,4.39
2023-02-21T23:49:20.988Z,4.40
2023-02-21T23:54:26.177Z,4.39
2023-02-21T23:59:32.203Z,4.41
